createdAt,value
2018-11-20T00:00:52.558Z,53.70
2018-11-20T00:03:19.551Z,53.80
2018-11-20T00:05:55.883Z,53.80
2018-11-20T00:08:14.555Z,53.70
2018-11-20T00:10:47.684Z,53.50
2018-11-20T00:13:06.143Z,53.50
2018-11-20T00:15:33.188Z,53.80
2018-11-20T00:17:45.210Z,54.20
2018-11-20T00:20:16.431Z,54.20
2018-11-20T00:22:39.674Z,53.80
2018-11-20T00:25:16.332Z,53.80
2018-11-20T00:27:46.762Z,53.80
2018-11-20T00:30:20.109Z,53.80
2018-11-20T00:32:42.918Z,53.80
2018-11-20T00:35:10.987Z,53.80
2018-11-20T00:37:41.281Z,53.70
2018-11-20T00:40:08.521Z,53.50
2018-11-20T00:42:35.043Z,53.50
2018-11-20T00:44:59.391Z,53.60
2018-11-20T00:47:26.368Z,53.40
2018-11-20T00:49:49.486Z,53.30
2018-11-20T00:52:12.654Z,53.10
2018-11-20T00:54:36.971Z,53.00
2018-11-20T00:57:01.278Z,53.20
2018-11-20T00:59:30.470Z,53.10
2018-11-20T01:02:07.023Z,52.90
2018-11-20T01:04:31.386Z,52.80
2018-11-20T01:07:04.716Z,52.80
2018-11-20T01:09:22.872Z,52.90
2018-11-20T01:11:59.408Z,52.70
2018-11-20T01:14:22.604Z,52.80
2018-11-20T01:16:43.620Z,52.90
2018-11-20T01:19:19.874Z,52.90
2018-11-20T01:21:42.788Z,52.90
2018-11-20T01:24:02.114Z,52.90
2018-11-20T01:26:14.135Z,53.00
2018-11-20T01:28:32.941Z,52.90
2018-11-20T01:31:00.446Z,52.90
2018-11-20T01:33:24.761Z,52.90
2018-11-20T01:35:47.578Z,52.90
2018-11-20T01:38:10.794Z,53.00
2018-11-20T01:40:27.183Z,53.10
2018-11-20T01:42:58.220Z,53.30
2018-11-20T01:45:16.137Z,53.10
2018-11-20T01:47:39.275Z,53.30
2018-11-20T01:50:03.604Z,53.30
2018-11-20T01:52:25.881Z,53.40
2018-11-20T01:54:50.227Z,53.20
2018-11-20T01:57:15.182Z,53.80
2018-11-20T01:59:54.367Z,53.30
2018-11-20T02:02:21.385Z,53.30
2018-11-20T02:04:46.355Z,53.30
2018-11-20T02:07:10.895Z,53.60
2018-11-20T02:09:41.189Z,53.60
2018-11-20T02:12:17.875Z,53.60
2018-11-20T02:14:47.005Z,53.40
2018-11-20T02:17:15.367Z,54.10
2018-11-20T02:19:44.138Z,53.50
2018-11-20T02:22:00.460Z,54.10
2018-11-20T02:24:20.750Z,53.50
2018-11-20T02:26:42.259Z,53.60
2018-11-20T02:29:05.205Z,53.50
2018-11-20T02:31:41.590Z,54.10
2018-11-20T02:33:58.384Z,53.50
2018-11-20T02:36:17.512Z,53.60
2018-11-20T02:38:37.860Z,53.60
2018-11-20T02:41:02.203Z,53.60
2018-11-20T02:43:24.917Z,53.50
2018-11-20T02:45:48.154Z,53.60
2018-11-20T02:48:10.076Z,53.50
2018-11-20T02:50:40.578Z,53.50
2018-11-20T02:53:20.111Z,53.60
2018-11-20T02:55:43.147Z,53.60
2018-11-20T02:58:16.794Z,53.60
2018-11-20T03:00:40.673Z,53.60
2018-11-20T03:03:18.017Z,53.60
2018-11-20T03:05:32.161Z,53.70
2018-11-20T03:08:00.155Z,53.80
2018-11-20T03:10:23.016Z,53.80
2018-11-20T03:12:42.690Z,53.80
2018-11-20T03:15:05.691Z,53.90
2018-11-20T03:17:28.737Z,53.90
2018-11-20T03:20:01.073Z,53.90
2018-11-20T03:22:24.403Z,53.90
2018-11-20T03:24:49.597Z,54.50
2018-11-20T03:27:12.495Z,53.90
2018-11-20T03:30:28.295Z,53.90
2018-11-20T03:32:51.447Z,53.90
2018-11-20T03:35:20.648Z,53.90
2018-11-20T03:37:44.260Z,53.80
2018-11-20T03:40:12.397Z,53.80
2018-11-20T03:42:42.217Z,54.10
2018-11-20T03:44:57.386Z,54.10
2018-11-20T03:47:12.684Z,54.10
2018-11-20T03:49:42.303Z,53.90
2018-11-20T03:51:54.469Z,54.10
2018-11-20T03:54:18.849Z,54.10
2018-11-20T03:56:44.278Z,54.10
2018-11-20T03:59:07.331Z,54.20
2018-11-20T04:01:40.649Z,54.20
2018-11-20T04:04:07.855Z,53.90
2018-11-20T04:06:31.514Z,53.90
2018-11-20T04:09:01.387Z,54.00
2018-11-20T04:11:28.719Z,53.90
2018-11-20T04:13:40.679Z,53.90
2018-11-20T04:16:03.771Z,54.00
2018-11-20T04:18:26.832Z,54.00
2018-11-20T04:20:56.930Z,53.90
2018-11-20T04:23:30.488Z,53.90
2018-11-20T04:25:45.514Z,53.90
2018-11-20T04:28:08.235Z,53.90
2018-11-20T04:31:18.558Z,53.90
2018-11-20T04:33:59.899Z,54.00
2018-11-20T04:36:24.055Z,53.90
2018-11-20T04:38:37.753Z,54.00
2018-11-20T04:41:11.030Z,53.90
2018-11-20T04:43:33.893Z,54.00
2018-11-20T04:45:50.572Z,53.90
2018-11-20T04:48:06.775Z,53.90
2018-11-20T04:50:46.445Z,54.00
2018-11-20T04:53:14.045Z,54.00
2018-11-20T04:55:32.871Z,54.00
2018-11-20T04:57:55.087Z,54.00
2018-11-20T05:00:22.338Z,54.00
2018-11-20T05:02:49.212Z,54.00
2018-11-20T05:05:05.450Z,53.80
2018-11-20T05:07:28.323Z,53.80
2018-11-20T05:09:51.282Z,54.00
2018-11-20T05:12:30.780Z,54.00
2018-11-20T05:14:53.906Z,54.00
2018-11-20T05:17:06.538Z,54.00
2018-11-20T05:19:29.415Z,54.00
2018-11-20T05:21:52.359Z,54.00
2018-11-20T05:24:25.578Z,54.00
2018-11-20T05:26:41.961Z,54.00
2018-11-20T05:29:04.724Z,54.10
2018-11-20T05:31:26.666Z,54.00
2018-11-20T05:33:59.871Z,54.00
2018-11-20T05:36:30.985Z,54.00
2018-11-20T05:38:50.773Z,54.10
2018-11-20T05:41:04.433Z,54.10
2018-11-20T05:43:27.634Z,54.00
2018-11-20T05:48:27.841Z,54.00
2018-11-20T05:51:08.920Z,54.00
2018-11-20T05:53:30.670Z,54.00
2018-11-20T05:55:59.953Z,54.00
2018-11-20T05:58:20.561Z,54.50
2018-11-20T06:00:48.938Z,54.00
2018-11-20T06:03:02.677Z,54.00
2018-11-20T06:05:15.617Z,54.00
2018-11-20T06:07:37.287Z,54.00
2018-11-20T06:09:59.195Z,54.00
2018-11-20T06:12:20.613Z,54.10
2018-11-20T06:14:43.671Z,54.00
2018-11-20T06:16:59.355Z,54.00
2018-11-20T06:19:28.054Z,53.70
2018-11-20T06:21:57.026Z,53.50
2018-11-20T06:24:18.819Z,53.50
2018-11-20T06:26:41.345Z,53.50
2018-11-20T06:29:19.524Z,53.60
2018-11-20T06:31:41.108Z,53.60
2018-11-20T06:34:02.708Z,53.50
2018-11-20T06:36:24.396Z,53.50
2018-11-20T06:39:02.437Z,53.40
2018-11-20T06:41:40.709Z,53.40
2018-11-20T06:44:04.400Z,53.40
2018-11-20T06:46:18.277Z,53.40
2018-11-20T06:48:45.307Z,53.50
2018-11-20T06:51:04.898Z,53.40
2018-11-20T06:53:27.079Z,53.40
2018-11-20T06:55:59.251Z,53.50
2018-11-20T06:58:32.389Z,53.70
2018-11-20T07:00:48.850Z,53.50
2018-11-20T07:03:14.782Z,53.50
2018-11-20T07:05:40.615Z,53.50
2018-11-20T07:08:02.829Z,53.40
2018-11-20T07:10:41.316Z,53.20
2018-11-20T07:13:08.169Z,53.10
2018-11-20T07:15:35.463Z,53.00
2018-11-20T07:17:47.489Z,53.00
2018-11-20T07:20:09.279Z,53.10
2018-11-20T07:22:31.759Z,53.00
2018-11-20T07:24:54.814Z,53.00
2018-11-20T07:27:29.873Z,52.90
2018-11-20T07:29:51.774Z,52.90
2018-11-20T07:32:17.573Z,53.00
2018-11-20T07:34:43.519Z,53.00
2018-11-20T07:36:58.964Z,52.80
2018-11-20T07:39:24.788Z,52.80
2018-11-20T07:41:56.190Z,52.80
2018-11-20T07:44:21.032Z,52.70
2018-11-20T07:46:35.106Z,52.40
2018-11-20T07:48:56.984Z,52.80
2018-11-20T07:51:18.996Z,52.80
2018-11-20T07:53:32.003Z,52.80
2018-11-20T07:56:07.120Z,52.70
2018-11-20T07:58:36.277Z,52.70
2018-11-20T08:01:10.872Z,52.70
2018-11-20T08:03:32.394Z,52.80
2018-11-20T08:05:54.328Z,52.70
2018-11-20T08:08:26.156Z,52.60
2018-11-20T08:10:49.228Z,52.50
2018-11-20T08:13:17.941Z,52.40
2018-11-20T08:15:39.944Z,52.50
2018-11-20T08:18:05.525Z,52.50
2018-11-20T08:20:31.279Z,52.60
2018-11-20T08:22:49.397Z,52.50
2018-11-20T08:25:15.175Z,52.50
2018-11-20T08:27:37.368Z,52.50
2018-11-20T08:29:50.480Z,52.60
2018-11-20T08:32:22.236Z,52.50
2018-11-20T08:34:47.159Z,52.50
2018-11-20T08:37:07.385Z,52.40
2018-11-20T08:39:29.149Z,52.50
2018-11-20T08:42:00.860Z,52.60
2018-11-20T08:44:34.243Z,52.50
2018-11-20T08:47:09.479Z,52.50
2018-11-20T08:49:31.348Z,52.50
2018-11-20T08:51:54.772Z,52.50
2018-11-20T08:54:23.752Z,52.70
2018-11-20T08:56:56.188Z,52.80
2018-11-20T08:59:11.116Z,52.80
2018-11-20T09:01:26.319Z,52.80
2018-11-20T09:03:50.762Z,52.90
2018-11-20T09:06:12.891Z,52.90
2018-11-20T09:08:34.867Z,52.90
2018-11-20T09:10:49.656Z,52.90
2018-11-20T09:13:11.597Z,52.80
2018-11-20T09:15:49.711Z,52.70
2018-11-20T09:18:11.702Z,52.80
2018-11-20T09:20:43.920Z,52.80
2018-11-20T09:23:12.866Z,52.70
2018-11-20T09:25:25.112Z,52.80
2018-11-20T09:27:40.317Z,52.80
2018-11-20T09:30:00.785Z,52.70
2018-11-20T09:32:16.495Z,52.70
2018-11-20T09:34:38.544Z,52.50
2018-11-20T09:37:00.091Z,52.40
2018-11-20T09:39:30.425Z,52.50
2018-11-20T09:42:19.236Z,52.60
2018-11-20T09:45:25.068Z,51.50
2018-11-20T09:47:47.179Z,52.70
2018-11-20T09:50:18.549Z,52.50
2018-11-20T09:52:40.560Z,52.30
2018-11-20T09:55:02.109Z,52.30
2018-11-20T09:57:37.884Z,52.40
2018-11-20T10:00:01.210Z,52.50
2018-11-20T10:02:22.011Z,52.60
2018-11-20T10:04:43.638Z,52.70
2018-11-20T10:07:24.908Z,52.70
2018-11-20T10:09:56.944Z,52.70
2018-11-20T10:12:19.177Z,52.60
2018-11-20T10:14:42.545Z,52.50
2018-11-20T10:16:56.276Z,52.50
2018-11-20T10:19:18.825Z,52.50
2018-11-20T10:21:40.605Z,52.30
2018-11-20T10:24:08.749Z,52.40
2018-11-20T10:26:37.644Z,52.50
2018-11-20T10:29:03.871Z,52.50
2018-11-20T10:31:26.980Z,52.40
2018-11-20T10:33:59.728Z,52.40
2018-11-20T10:36:14.319Z,52.40
2018-11-20T10:38:52.638Z,52.20
2018-11-20T10:41:24.816Z,52.30
2018-11-20T10:43:44.024Z,52.40
2018-11-20T10:46:06.616Z,52.40
2018-11-20T10:48:47.631Z,52.30
2018-11-20T10:51:09.495Z,51.10
2018-11-20T10:53:31.451Z,52.30
2018-11-20T10:56:00.394Z,52.30
2018-11-20T10:58:15.499Z,52.30
2018-11-20T11:00:37.616Z,52.30
2018-11-20T11:02:59.253Z,52.40
2018-11-20T11:05:21.230Z,52.40
2018-11-20T11:07:50.078Z,52.40
2018-11-20T11:10:11.927Z,52.50
2018-11-20T11:12:39.722Z,52.50
2018-11-20T11:15:01.340Z,52.40
2018-11-20T11:17:14.997Z,52.30
2018-11-20T11:19:37.096Z,52.30
2018-11-20T11:21:52.405Z,52.40
2018-11-20T11:24:14.276Z,52.30
2018-11-20T11:26:47.090Z,52.30
2018-11-20T11:28:58.242Z,52.60
2018-11-20T11:31:20.105Z,52.30
2018-11-20T11:33:41.966Z,52.20
2018-11-20T11:36:03.815Z,52.20
2018-11-20T11:38:26.965Z,52.30
2018-11-20T11:40:55.391Z,52.40
2018-11-20T11:43:33.859Z,52.60
2018-11-20T11:46:06.327Z,53.30
2018-11-20T11:48:37.498Z,52.60
2018-11-20T11:50:59.407Z,52.40
2018-11-20T11:53:29.226Z,52.30
2018-11-20T11:55:53.046Z,52.30
2018-11-20T11:58:12.398Z,52.40
2018-11-20T12:00:39.983Z,52.30
2018-11-20T12:05:22.318Z,52.40
2018-11-20T12:07:47.147Z,52.40
2018-11-20T12:10:11.969Z,52.40
2018-11-20T12:12:23.201Z,52.60
2018-11-20T12:14:45.293Z,52.50
2018-11-20T12:17:14.181Z,52.50
2018-11-20T12:19:37.292Z,52.60
2018-11-20T12:21:57.877Z,52.60
2018-11-20T12:24:23.813Z,52.60
2018-11-20T12:27:02.689Z,52.70
2018-11-20T12:29:25.204Z,52.70
2018-11-20T12:31:50.818Z,53.00
2018-11-20T12:34:19.502Z,52.70
2018-11-20T12:36:36.415Z,52.70
2018-11-20T12:39:00.334Z,52.70
2018-11-20T12:41:15.613Z,52.70
2018-11-20T12:43:38.576Z,52.80
2018-11-20T12:46:00.298Z,52.80
2018-11-20T12:48:23.438Z,53.00
2018-11-20T12:50:46.884Z,53.00
2018-11-20T12:53:21.461Z,52.90
2018-11-20T12:55:51.022Z,53.00
2018-11-20T12:58:13.988Z,53.10
2018-11-20T13:00:34.690Z,53.20
2018-11-20T13:02:54.816Z,53.10
2018-11-20T13:05:22.286Z,53.00
2018-11-20T13:07:57.412Z,53.10
2018-11-20T13:10:20.935Z,53.20
2018-11-20T13:12:41.041Z,53.30
2018-11-20T13:15:02.652Z,53.40
2018-11-20T13:17:22.877Z,53.50
2018-11-20T13:19:44.917Z,54.10
2018-11-20T13:22:06.632Z,53.60
2018-11-20T13:24:29.736Z,53.80
2018-11-20T13:26:52.876Z,53.90
2018-11-20T13:29:09.823Z,53.80
2018-11-20T13:31:31.323Z,53.90
2018-11-20T13:33:47.985Z,53.90
2018-11-20T13:36:08.985Z,53.90
2018-11-20T13:38:33.324Z,53.80
2018-11-20T13:41:49.737Z,53.90
2018-11-20T13:44:24.966Z,54.00
2018-11-20T13:46:49.299Z,54.00
2018-11-20T13:49:18.206Z,53.90
2018-11-20T13:51:53.460Z,54.00
2018-11-20T13:54:22.535Z,54.10
2018-11-20T13:56:35.255Z,54.30
2018-11-20T13:59:16.620Z,54.40
2018-11-20T14:01:51.495Z,54.40
2018-11-20T14:04:23.724Z,54.30
2018-11-20T14:06:38.931Z,54.20
2018-11-20T14:09:10.647Z,54.20
2018-11-20T14:11:36.378Z,54.20
2018-11-20T14:13:53.374Z,54.20
2018-11-20T14:16:23.124Z,54.10
2018-11-20T14:18:52.123Z,54.00
2018-11-20T14:21:24.085Z,54.10
2018-11-20T14:23:59.266Z,54.10
2018-11-20T14:26:21.173Z,53.90
2018-11-20T14:28:44.315Z,53.20
2018-11-20T14:31:01.865Z,53.50
2018-11-20T14:33:24.129Z,53.50
2018-11-20T14:35:46.238Z,53.40
2018-11-20T14:38:08.164Z,53.40
2018-11-20T14:40:46.283Z,53.50
2018-11-20T14:43:12.270Z,53.40
2018-11-20T14:45:35.616Z,53.40
2018-11-20T14:47:57.788Z,53.30
2018-11-20T14:50:29.869Z,53.00
2018-11-20T14:52:53.012Z,53.00
2018-11-20T14:55:19.135Z,53.10
2018-11-20T14:57:54.455Z,53.00
2018-11-20T15:00:16.490Z,53.00
2018-11-20T15:02:39.619Z,52.90
2018-11-20T15:05:18.212Z,52.80
2018-11-20T15:07:40.018Z,52.80
2018-11-20T15:10:05.692Z,52.90
2018-11-20T15:12:43.647Z,52.80
2018-11-20T15:15:09.815Z,52.60
2018-11-20T15:17:31.647Z,52.70
2018-11-20T15:20:09.408Z,52.50
2018-11-20T15:22:24.123Z,52.30
2018-11-20T15:24:42.383Z,52.40
2018-11-20T15:27:11.249Z,52.40
2018-11-20T15:29:46.821Z,52.40
2018-11-20T15:32:08.389Z,52.40
2018-11-20T15:34:46.468Z,52.60
2018-11-20T15:37:24.838Z,53.40
2018-11-20T15:39:47.967Z,52.90
2018-11-20T15:42:09.876Z,52.90
2018-11-20T15:44:31.551Z,53.00
2018-11-20T15:46:48.022Z,53.10
2018-11-20T15:49:09.979Z,53.20
2018-11-20T15:51:40.491Z,53.30
2018-11-20T15:54:02.206Z,53.40
2018-11-20T15:56:15.775Z,53.40
2018-11-20T15:58:34.211Z,53.60
2018-11-20T16:01:09.240Z,53.60
2018-11-20T16:03:50.719Z,53.70
2018-11-20T16:06:12.597Z,53.80
2018-11-20T16:08:41.476Z,53.70
2018-11-20T16:11:16.409Z,53.80
2018-11-20T16:13:38.116Z,53.90
2018-11-20T16:16:00.574Z,54.10
2018-11-20T16:18:32.755Z,54.40
2018-11-20T16:21:04.977Z,54.50
2018-11-20T16:23:40.982Z,55.20
2018-11-20T16:26:04.699Z,54.80
2018-11-20T16:28:37.823Z,55.00
2018-11-20T16:30:59.688Z,54.90
2018-11-20T16:33:24.424Z,54.90
2018-11-20T16:35:49.683Z,55.10
2018-11-20T16:38:12.814Z,55.20
2018-11-20T16:40:41.802Z,55.30
2018-11-20T16:43:17.016Z,55.40
2018-11-20T16:45:46.011Z,55.30
2018-11-20T16:48:27.731Z,55.30
2018-11-20T16:51:00.169Z,55.40
2018-11-20T16:53:21.855Z,55.40
2018-11-20T16:55:37.280Z,55.60
2018-11-20T16:58:00.455Z,55.70
2018-11-20T17:00:23.056Z,55.70
2018-11-20T17:02:39.684Z,55.90
2018-11-20T17:05:18.239Z,55.80
2018-11-20T17:07:39.906Z,55.80
2018-11-20T17:10:09.839Z,56.00
2018-11-20T17:12:33.920Z,55.80
2018-11-20T17:14:59.866Z,55.90
2018-11-20T17:17:21.045Z,56.00
2018-11-20T17:19:39.018Z,56.10
2018-11-20T17:22:02.667Z,56.10
2018-11-20T17:24:37.958Z,56.30
2018-11-20T17:26:59.697Z,56.10
2018-11-20T17:29:19.765Z,55.90
2018-11-20T17:31:45.464Z,56.00
2018-11-20T17:34:08.626Z,56.10
2018-11-20T17:36:32.759Z,56.30
2018-11-20T17:38:59.455Z,56.30
2018-11-20T17:41:25.394Z,56.40
2018-11-20T17:44:00.284Z,56.40
2018-11-20T17:46:26.025Z,56.40
2018-11-20T17:48:45.952Z,56.30
2018-11-20T17:51:07.520Z,56.20
2018-11-20T17:53:29.144Z,56.40
2018-11-20T17:58:10.624Z,56.30
2018-11-20T18:00:26.032Z,56.30
2018-11-20T18:02:47.646Z,56.40
2018-11-20T18:05:09.344Z,56.50
2018-11-20T18:07:35.360Z,56.40
2018-11-20T18:10:10.730Z,56.30
2018-11-20T18:12:43.211Z,56.30
2018-11-20T18:15:06.313Z,56.30
2018-11-20T18:17:38.284Z,56.40
2018-11-20T18:19:59.889Z,56.40
2018-11-20T18:22:32.097Z,56.40
2018-11-20T18:24:55.255Z,57.00
2018-11-20T18:27:18.938Z,56.30
2018-11-20T18:29:40.525Z,56.30
2018-11-20T18:31:56.435Z,56.40
2018-11-20T18:34:09.772Z,56.30
2018-11-20T18:36:31.721Z,56.30
2018-11-20T18:38:53.264Z,56.30
2018-11-20T18:41:25.854Z,56.40
2018-11-20T18:43:54.987Z,56.60
2018-11-20T18:46:16.872Z,56.50
2018-11-20T18:48:38.913Z,56.70
2018-11-20T18:50:53.211Z,56.90
2018-11-20T18:53:16.279Z,56.90
2018-11-20T18:55:31.389Z,57.40
2018-11-20T18:58:00.150Z,56.80
2018-11-20T19:00:22.350Z,56.80
2018-11-20T19:02:33.529Z,56.90
2018-11-20T19:05:03.223Z,56.80
2018-11-20T19:07:19.136Z,56.70
2018-11-20T19:09:40.995Z,56.40
2018-11-20T19:12:03.714Z,56.40
2018-11-20T19:14:31.148Z,56.40
2018-11-20T19:16:48.103Z,56.20
2018-11-20T19:19:18.474Z,56.20
2018-11-20T19:21:40.437Z,56.20
2018-11-20T19:24:15.401Z,56.30
2018-11-20T19:26:37.221Z,56.20
2018-11-20T19:28:57.373Z,56.20
2018-11-20T19:31:19.175Z,56.10
2018-11-20T19:33:49.870Z,56.10
2018-11-20T19:36:03.840Z,56.50
2018-11-20T19:38:25.613Z,56.20
2018-11-20T19:40:54.805Z,56.20
2018-11-20T19:43:16.773Z,56.30
2018-11-20T19:45:39.795Z,56.30
2018-11-20T19:48:01.836Z,56.70
2018-11-20T19:50:27.248Z,56.70
2018-11-20T19:52:50.758Z,56.70
2018-11-20T19:55:05.788Z,56.70
2018-11-20T19:57:27.265Z,56.70
2018-11-20T19:59:49.446Z,56.60
2018-11-20T20:02:11.583Z,56.60
2018-11-20T20:04:33.392Z,56.60
2018-11-20T20:06:58.504Z,56.80
2018-11-20T20:09:20.500Z,56.80
2018-11-20T20:11:48.164Z,56.90
2018-11-20T20:14:02.196Z,56.90
2018-11-20T20:16:18.269Z,56.90
2018-11-20T20:18:40.374Z,56.90
2018-11-20T20:21:03.232Z,56.90
2018-11-20T20:23:35.351Z,56.90
2018-11-20T20:26:13.737Z,56.80
2018-11-20T20:28:49.187Z,56.40
2018-11-20T20:31:11.615Z,56.40
2018-11-20T20:33:39.106Z,56.40
2018-11-20T20:36:01.143Z,56.50
2018-11-20T20:38:18.228Z,57.10
2018-11-20T20:40:41.379Z,56.40
2018-11-20T20:43:16.997Z,56.40
2018-11-20T20:45:40.141Z,56.40
2018-11-20T20:48:02.072Z,56.60
2018-11-20T20:50:29.232Z,56.70
2018-11-20T20:52:52.487Z,56.80
2018-11-20T20:55:18.150Z,56.80
2018-11-20T20:57:43.938Z,57.00
2018-11-20T21:00:06.046Z,57.10
2018-11-20T21:02:40.900Z,57.20
2018-11-20T21:05:01.542Z,57.30
2018-11-20T21:07:27.868Z,57.40
2018-11-20T21:09:40.117Z,57.40
2018-11-20T21:12:15.043Z,57.50
2018-11-20T21:14:37.105Z,57.50
2018-11-20T21:16:59.098Z,58.00
2018-11-20T21:19:21.077Z,57.40
2018-11-20T21:21:47.191Z,57.40
2018-11-20T21:24:12.908Z,57.50
2018-11-20T21:26:28.469Z,57.50
2018-11-20T21:28:54.742Z,57.30
2018-11-20T21:31:16.355Z,57.30
2018-11-20T21:33:34.262Z,57.40
2018-11-20T21:35:56.020Z,57.40
2018-11-20T21:38:17.544Z,57.40
2018-11-20T21:40:39.352Z,57.50
2018-11-20T21:43:01.160Z,57.50
2018-11-20T21:45:24.210Z,57.60
2018-11-20T21:47:56.320Z,57.70
2018-11-20T21:50:14.663Z,57.60
2018-11-20T21:52:56.497Z,57.60
2018-11-20T21:55:18.244Z,57.70
2018-11-20T21:57:41.367Z,57.70
2018-11-20T22:00:04.076Z,57.90
2018-11-20T22:02:42.583Z,57.80
2018-11-20T22:05:04.006Z,57.80
2018-11-20T22:07:26.604Z,57.90
2018-11-20T22:09:48.811Z,57.80
2018-11-20T22:12:11.067Z,57.80
2018-11-20T22:14:33.017Z,57.80
2018-11-20T22:16:56.375Z,57.90
2018-11-20T22:19:18.039Z,57.80
2018-11-20T22:21:33.269Z,58.00
2018-11-20T22:23:50.132Z,58.10
2018-11-20T22:26:15.802Z,58.10
2018-11-20T22:28:37.605Z,58.30
2018-11-20T22:30:50.911Z,58.40
2018-11-20T22:33:19.616Z,58.50
2018-11-20T22:35:48.708Z,58.50
2018-11-20T22:38:12.701Z,58.70
2018-11-20T22:40:41.891Z,58.80
2018-11-20T22:43:13.355Z,59.10
2018-11-20T22:45:54.623Z,59.40
2018-11-20T22:48:16.256Z,60.10
2018-11-20T22:50:54.583Z,59.70
2018-11-20T22:53:16.404Z,59.90
2018-11-20T22:55:45.146Z,59.80
2018-11-20T22:57:58.621Z,59.80
2018-11-20T23:00:21.749Z,59.80
2018-11-20T23:02:45.892Z,60.00
2018-11-20T23:05:04.938Z,60.40
2018-11-20T23:07:22.164Z,60.50
2018-11-20T23:09:26.195Z,60.50
2018-11-20T23:11:30.277Z,60.30
2018-11-20T23:13:34.321Z,60.20
2018-11-20T23:15:38.655Z,60.30
2018-11-20T23:17:42.658Z,60.10
2018-11-20T23:19:46.673Z,60.10
2018-11-20T23:21:50.684Z,60.20
2018-11-20T23:23:54.693Z,60.40
2018-11-20T23:25:58.738Z,60.70
2018-11-20T23:28:02.748Z,60.70
2018-11-20T23:30:12.392Z,60.80
2018-11-20T23:32:16.410Z,60.90
2018-11-20T23:34:20.414Z,60.90
2018-11-20T23:36:24.408Z,60.80
2018-11-20T23:38:28.412Z,60.90
2018-11-20T23:40:32.409Z,60.60
2018-11-20T23:42:40.145Z,60.30
2018-11-20T23:44:41.738Z,60.20
2018-11-20T23:46:45.720Z,60.20
2018-11-20T23:48:49.731Z,60.30
2018-11-20T23:50:55.159Z,60.20
2018-11-20T23:52:59.163Z,60.00
2018-11-20T23:55:03.175Z,59.80
2018-11-20T23:57:07.160Z,59.70
2018-11-20T23:59:11.221Z,59.50
